EDT,Max TemperatureF,Mean TemperatureF,Min TemperatureF,Max Dew PointF,MeanDew PointF,Min DewpointF,Max Humidity, Mean Humidity, Min Humidity, Max Sea Level PressureIn, Mean Sea Level PressureIn, Min Sea Level PressureIn, Max VisibilityMiles, Mean VisibilityMiles, Min VisibilityMiles, Max Wind SpeedMPH, Mean Wind SpeedMPH, Max Gust SpeedMPH,PrecipitationIn, CloudCover, Events, WindDirDegrees
2012-5-1,82,73,64,68,65,61,100,82,54,30.17,30.11,30.05,10,9,1,16,9,23,0.00,4,Rain-Thunderstorm,214
2012-5-2,87,74,62,70,66,63,100,79,45,30.15,30.10,30.06,10,9,0,8,3,,0.00,1,Fog-Thunderstorm,241
2012-5-3,87,73,59,73,66,59,100,79,43,30.16,30.10,30.06,10,9,0,5,2,,0.00,1,Fog,222
2012-5-4,86,72,57,70,64,57,100,77,45,30.08,30.02,29.93,10,8,0,7,1,16,0.00,2,Fog-Thunderstorm,257
2012-5-5,80,70,60,70,65,61,100,88,65,29.94,29.90,29.84,10,9,0,15,1,21,2.25,3,Rain-Thunderstorm,351
2012-5-6,71,65,59,66,64,59,100,93,69,30.08,30.01,29.94,10,8,3,10,6,,0.01,7,Rain,32
2012-5-7,73,64,55,61,58,55,100,79,57,30.11,30.06,30.00,10,10,2,9,3,,0.00,4,Thunderstorm,117
2012-5-8,73,66,59,63,60,55,100,77,65,30.05,29.96,29.87,10,10,10,12,4,18,0.00,6,,188
2012-5-9,73,64,55,66,62,55,100,91,68,29.90,29.80,29.71,10,9,2,13,5,22,0.18,7,Rain-Thunderstorm,217
2012-5-10,69,58,46,55,49,43,100,75,40,30.00,29.84,29.73,10,10,7,10,3,21,0.00,1,,311
2012-5-11,69,55,41,50,41,34,100,62,28,30.25,30.15,30.01,10,10,7,8,1,,0.00,0,,9
2012-5-12,73,58,42,55,47,41,100,69,31,30.37,30.30,30.25,10,10,7,9,1,,0.00,0,,204
2012-5-13,71,61,51,63,58,52,100,86,57,30.29,30.23,30.17,10,10,7,12,2,17,0.07,4,Rain,178
2012-5-14,69,64,60,66,63,61,100,97,78,30.16,30.07,29.99,10,9,4,9,5,,0.76,7,Rain-Thunderstorm,156
2012-5-15,78,69,60,68,64,61,100,89,57,30.03,29.99,29.95,10,10,2,12,4,16,0.03,5,Rain-Thunderstorm,228
2012-5-16,78,70,62,68,64,61,100,84,54,30.00,29.97,29.91,10,7,1,6,1,,0.02,5,Rain-Thunderstorm,333
2012-5-17,78,68,57,66,62,57,100,83,57,30.09,30.01,29.94,10,8,0,15,5,20,0.00,4,Fog,57
2012-5-18,71,64,57,63,52,45,100,68,38,30.15,30.11,30.07,10,10,7,13,6,20,0.00,2,Thunderstorm,34
2012-5-19,75,60,46,52,48,43,100,65,36,30.19,30.15,30.09,10,10,10,15,3,20,0.00,0,Thunderstorm,24
2012-5-20,78,64,50,61,54,50,100,67,36,30.15,30.11,30.07,10,10,7,16,5,24,0.00,4,Rain,37
2012-5-21,78,70,62,64,63,61,100,84,54,30.06,30.01,29.90,10,10,10,6,1,,0.00,6,,44
2012-5-22,80,70,59,68,63,59,100,87,51,29.93,29.89,29.82,10,8,0,8,2,,0.69,4,Fog-Rain-Thunderstorm,243
2012-5-23,75,68,60,64,62,59,100,88,61,29.99,29.92,29.84,10,9,2,10,3,18,0.58,5,Rain-Thunderstorm,145
2012-5-24,82,70,59,70,65,59,100,89,54,30.09,30.04,29.98,10,8,0,14,1,18,0.15,5,Fog-Rain-Thunderstorm,93
2012-5-25,86,72,59,70,65,59,100,81,45,30.18,30.13,30.09,10,8,0,7,1,,0.00,2,Fog,78
2012-5-26,84,73,62,68,65,61,100,80,48,30.20,30.16,30.12,10,9,0,13,3,17,0.00,1,Fog,70
2012-5-27,82,71,60,70,66,61,100,85,58,30.20,30.15,30.09,10,9,0,8,1,,0.00,3,Fog,89
2012-5-28,86,78,69,70,69,64,100,82,51,30.13,30.08,30.02,10,10,3,10,2,,0.00,4,,212
2012-5-29,84,76,68,70,69,66,100,84,58,30.05,29.96,29.87,10,10,4,15,5,18,0.00,4,Rain-Thunderstorm,212
2012-5-30,80,71,60,70,65,54,100,86,39,29.90,29.81,29.76,10,9,3,14,3,20,0.06,4,Rain,26
2012-5-31,86,72,59,68,61,57,100,70,37,29.96,29.88,29.83,10,9,2,12,1,26,0.32,2,Rain-Thunderstorm,238